Time;durP1;ratioP1;P1;durP2;ratioP2;P2;SDS_P1;SDS_P2;PMS_P1;PMS_P2;Temp;Humidity;BMP_temperature;BMP_pressure;BME280_temperature;BME280_humidity;BME280_pressure;Samples;Min_cycle;Max_cycle;Signal;HPM_P1;HPM_P2
2021/05/06 00:10:26;;;;;;;0.00;0.00;;;;;;;12.21;51.22;100010.60;1789911;79;21135;-45
2021/05/06 00:34:22;;;;;;;0.10;0.10;;;;;;;12.07;52.08;100002.94;1789634;80;21157;-45
2021/05/06 00:36:50;;;;;;;0.10;0.10;;;;;;;12.06;52.14;100008.14;1777961;80;21175;-45
2021/05/06 00:39:22;;;;;;;0.00;0.00;;;;;;;12.02;52.38;99998.35;1775456;80;21522;-45
2021/05/06 00:45:00;;;;;;;0.10;0.10;;;;;;;11.99;52.14;99998.95;1822138;78;21127;-45
2021/05/06 01:12:48;;;;;;;0.40;0.40;;;;;;;11.88;53.02;99987.91;1785713;80;21134;-45
2021/05/06 01:15:16;;;;;;;0.00;0.00;;;;;;;11.87;52.98;99986.30;1784770;80;21170;-46
2021/05/06 01:17:44;;;;;;;0.57;0.57;;;;;;;11.85;53.21;99984.38;1785574;80;21532;-46
2021/05/06 01:20:13;;;;;;;0.10;0.10;;;;;;;11.84;53.22;99980.00;1786022;80;21544;-46
2021/05/06 01:22:41;;;;;;;0.20;0.20;;;;;;;11.84;53.15;99980.00;1785736;80;21722;-46
2021/05/06 01:25:10;;;;;;;0.03;0.03;;;;;;;11.86;53.28;99975.03;1781086;80;21104;-45
2021/05/06 01:27:53;;;;;;;0.10;0.10;;;;;;;11.87;53.41;99972.61;1785828;80;21526;-46
2021/05/06 01:32:56;;;;;;;0.37;0.33;;;;;;;11.87;53.65;99969.03;1782773;80;21114;-46
2021/05/06 01:35:26;;;;;;;0.10;0.10;;;;;;;11.85;53.69;99958.38;1784554;78;21122;-46
2021/05/06 01:42:51;;;;;;;0.10;0.10;;;;;;;11.83;54.30;99946.90;1777570;80;21153;-46
2021/05/06 01:48:17;;;;;;;0.10;0.10;;;;;;;11.81;54.68;99945.82;1785671;80;21142;-46
2021/05/06 01:50:54;;;;;;;0.20;0.20;;;;;;;11.79;54.59;99947.23;1778978;80;21465;-46
2021/05/06 02:01:21;;;;;;;0.25;0.13;;;;;;;11.77;54.92;99936.60;1864059;76;22817;-46
2021/05/06 02:03:50;;;;;;;0.20;0.20;;;;;;;11.73;55.19;99940.23;1823536;78;21420;-46
2021/05/06 02:06:19;;;;;;;2.62;0.30;;;;;;;11.72;55.57;99933.12;1821206;77;21118;-46
2021/05/06 02:08:48;;;;;;;0.00;0.00;;;;;;;11.70;56.03;99926.59;1800453;78;21173;-46
2021/05/06 02:11:17;;;;;;;0.20;0.20;;;;;;;11.69;56.75;99918.67;1817019;77;21106;-46
2021/05/06 02:14:09;;;;;;;0.30;0.30;;;;;;;11.70;57.35;99921.68;1834304;76;22661;-46
2021/05/06 02:16:39;;;;;;;0.10;0.10;;;;;;;11.62;57.80;99925.36;1785398;80;21150;-46
2021/05/06 02:19:08;;;;;;;0.10;0.10;;;;;;;11.58;58.90;99922.95;1763940;80;21133;-46
2021/05/06 02:21:38;;;;;;;0.10;0.10;;;;;;;11.53;60.05;99927.14;1746511;80;21098;-46
2021/05/06 02:24:06;;;;;;;0.00;0.00;;;;;;;11.45;60.80;99923.72;1785690;78;21094;-46
2021/05/06 02:26:34;;;;;;;0.75;0.42;;;;;;;11.37;60.95;99923.01;1785583;80;21109;-46
2021/05/06 02:29:02;;;;;;;0.08;0.08;;;;;;;11.32;61.53;99927.19;1786071;78;21122;-46
2021/05/06 02:31:32;;;;;;;0.00;0.00;;;;;;;11.26;62.15;99925.09;1786050;80;21550;-46
2021/05/06 02:34:00;;;;;;;0.10;0.10;;;;;;;11.22;62.40;99924.61;1785594;80;21591;-46
2021/05/06 02:36:27;;;;;;;0.03;0.03;;;;;;;11.17;62.57;99920.84;1785573;80;21552;-46
2021/05/06 02:38:58;;;;;;;0.00;0.00;;;;;;;11.14;62.67;99915.97;1781878;78;21133;-46
2021/05/06 02:41:26;;;;;;;0.10;0.10;;;;;;;11.12;62.92;99916.81;1780999;80;21145;-47
2021/05/06 02:43:55;;;;;;;0.70;0.47;;;;;;;11.11;63.04;99911.09;1785749;78;21158;-46
2021/05/06 02:46:25;;;;;;;0.17;0.10;;;;;;;11.08;63.32;99910.33;1785583;80;21157;-46
2021/05/06 02:48:54;;;;;;;0.10;0.10;;;;;;;11.05;63.43;99906.80;1785663;80;21157;-46
2021/05/06 02:51:28;;;;;;;0.00;0.00;;;;;;;11.03;63.68;99907.67;1785572;80;21129;-46
2021/05/06 02:53:54;;;;;;;0.00;0.00;;;;;;;11.02;63.79;99903.30;1785020;78;21157;-46
2021/05/06 03:04:30;;;;;;;0.00;0.00;;;;;;;10.99;64.51;99907.99;1785602;78;21497;-46
2021/05/06 03:07:06;;;;;;;0.10;0.10;;;;;;;10.98;64.47;99918.68;1785750;80;21122;-46
2021/05/06 03:22:55;;;;;;;0.08;0.08;;;;;;;10.79;66.12;99918.66;1785869;80;21169;-46
2021/05/06 03:25:22;;;;;;;4.37;2.10;;;;;;;10.75;66.28;99919.77;1783240;78;21129;-46
2021/05/06 03:28:01;;;;;;;0.10;0.10;;;;;;;10.72;66.39;99910.80;1785179;80;21126;-46
2021/05/06 04:27:22;;;;;;;0.62;0.40;;;;;;;12.57;62.82;99880.34;1818416;78;21778;-46
2021/05/06 04:37:51;;;;;;;0.47;0.47;;;;;;;12.85;60.46;99896.98;1813858;78;21518;-46
2021/05/06 04:57:07;;;;;;;0.08;0.08;;;;;;;14.33;55.74;99913.68;1887417;76;22621;-46
2021/05/06 05:04:45;;;;;;;0.08;0.08;;;;;;;14.72;53.86;99917.56;1820308;78;21166;-46
2021/05/06 05:18:04;;;;;;;0.10;0.10;;;;;;;14.82;53.47;99907.05;1764111;80;21140;-46
2021/05/06 05:25:59;;;;;;;0.00;0.00;;;;;;;14.99;52.65;99895.27;1794360;78;20275;-46
2021/05/06 05:28:21;;;;;;;;;;;;;;;15.09;52.23;99898.84;1788419;78;21158;-46
2021/05/06 05:30:49;;;;;;;0.00;0.00;;;;;;;15.12;51.98;99904.50;1793588;78;20259;-46
2021/05/06 05:33:19;;;;;;;0.10;0.10;;;;;;;15.13;52.36;99895.09;1816158;78;21801;-46
2021/05/06 05:56:51;;;;;;;0.13;0.13;;;;;;;15.53;51.04;99870.70;1786093;79;21150;-46
2021/05/06 05:59:19;;;;;;;0.10;0.10;;;;;;;15.52;51.53;99873.23;1741649;81;21141;-46
2021/05/06 06:01:48;;;;;;;0.00;0.00;;;;;;;15.67;51.37;99865.25;1740497;80;21161;-46
2021/05/06 06:04:16;;;;;;;0.00;0.00;;;;;;;15.96;50.71;99880.86;1736630;81;21187;-46
2021/05/06 06:06:43;;;;;;;0.70;0.62;;;;;;;16.23;49.20;99872.73;1737506;82;21210;-46
2021/05/06 06:09:11;;;;;;;0.25;0.15;;;;;;;16.38;48.05;99874.12;1758227;81;21173;-46
2021/05/06 06:11:39;;;;;;;0.20;0.20;;;;;;;16.46;47.51;99885.66;1767528;81;21165;-46
2021/05/06 06:14:08;;;;;;;0.00;0.00;;;;;;;16.49;46.43;99890.51;1768434;81;21114;-46
2021/05/06 06:16:39;;;;;;;1.55;0.42;;;;;;;16.44;46.36;99898.39;1768158;81;21148;-46
2021/05/06 06:19:06;;;;;;;0.30;0.30;;;;;;;16.36;46.13;99902.59;1769678;80;21454;-46
2021/05/06 06:24:06;;;;;;;0.08;0.08;;;;;;;16.17;46.35;99906.56;1771359;81;21150;-46
2021/05/06 06:26:36;;;;;;;1.35;0.15;;;;;;;16.09;46.47;99901.87;1771610;81;21161;-46
2021/05/06 06:29:10;;;;;;;0.03;0.03;;;;;;;16.02;46.50;99897.44;1771327;81;21142;-46
2021/05/06 06:31:41;;;;;;;0.82;0.37;;;;;;;15.94;46.17;99903.80;1770799;81;21170;-46
2021/05/06 06:34:07;;;;;;;0.53;0.35;;;;;;;15.85;46.31;99905.17;1768076;81;21593;-46
2021/05/06 06:36:35;;;;;;;0.10;0.10;;;;;;;15.78;46.72;99906.28;1749516;81;21563;-46
2021/05/06 06:39:04;;;;;;;0.10;0.10;;;;;;;15.73;47.22;99914.71;1737742;82;21108;-46
2021/05/06 06:41:32;;;;;;;0.10;0.10;;;;;;;15.67;47.48;99916.20;1737891;82;21132;-46
2021/05/06 06:44:01;;;;;;;0.08;0.08;;;;;;;15.68;47.27;99926.67;1737738;82;21132;-46
2021/05/06 06:46:31;;;;;;;0.00;0.00;;;;;;;15.71;47.37;99930.75;1737797;82;21155;-46
2021/05/06 06:49:00;;;;;;;0.03;0.03;;;;;;;15.72;47.75;99949.69;1737690;82;21614;-45
2021/05/06 06:51:28;;;;;;;0.28;0.28;;;;;;;15.67;48.91;99955.33;1755856;81;21177;-46
2021/05/06 06:53:55;;;;;;;0.00;0.00;;;;;;;15.56;52.88;99963.13;1780236;80;21576;-43
2021/05/06 06:56:23;;;;;;;0.20;0.20;;;;;;;15.20;57.91;99975.81;1739654;82;21144;-49
2021/05/06 06:58:52;;;;;;;0.45;0.45;;;;;;;14.59;60.77;99997.67;1753827;81;21146;-48
2021/05/06 07:01:20;;;;;;;0.00;0.00;;;;;;;14.01;62.81;99989.80;1749595;82;21123;-48
2021/05/06 07:03:48;;;;;;;0.00;0.00;;;;;;;13.48;65.01;99997.41;1754023;81;21138;-46
2021/05/06 07:06:16;;;;;;;0.10;0.10;;;;;;;13.08;66.24;99993.02;1749809;82;21151;-49
2021/05/06 07:08:47;;;;;;;0.10;0.10;;;;;;;12.78;67.97;99982.95;1746365;82;21123;-49
2021/05/06 07:11:13;;;;;;;0.10;0.10;;;;;;;12.52;69.57;99976.38;1764273;81;21142;-43
2021/05/06 07:13:41;;;;;;;0.00;0.00;;;;;;;12.31;70.44;99986.33;1754101;81;21146;-43
2021/05/06 07:16:09;;;;;;;0.00;0.00;;;;;;;12.19;72.14;99988.73;1749634;82;21148;-42
2021/05/06 07:18:38;;;;;;;0.10;0.10;;;;;;;12.13;72.49;99992.70;1764120;81;21127;-42
2021/05/06 07:21:06;;;;;;;0.00;0.00;;;;;;;12.12;72.83;99998.73;1733383;82;21165;-42
2021/05/06 07:23:35;;;;;;;0.10;0.10;;;;;;;12.15;72.73;100005.53;1753954;80;21712;-42
2021/05/06 07:26:04;;;;;;;1.25;0.53;;;;;;;12.18;72.38;100003.56;1776495;80;21169;-41
2021/05/06 07:28:41;;;;;;;0.05;0.05;;;;;;;12.26;71.94;99998.75;1764428;81;21218;-41
2021/05/06 07:31:11;;;;;;;0.30;0.30;;;;;;;12.45;71.85;100000.05;1751505;81;21127;-41
2021/05/06 07:33:42;;;;;;;0.08;0.08;;;;;;;12.78;71.32;99988.44;1775786;79;21158;-41
2021/05/06 07:36:12;;;;;;;0.17;0.17;;;;;;;13.19;68.06;99977.17;1780030;79;20988;-41
2021/05/06 07:38:42;;;;;;;0.03;0.03;;;;;;;13.60;66.35;99994.93;1763370;81;21189;-41
2021/05/06 07:41:13;;;;;;;0.40;0.28;;;;;;;13.97;64.55;99995.66;1763610;81;21134;-43
2021/05/06 07:43:43;;;;;;;0.42;0.42;;;;;;;14.25;63.29;99988.66;1764585;79;21430;-43
2021/05/06 07:46:13;;;;;;;0.10;0.10;;;;;;;14.51;63.84;99977.20;1763333;81;21161;-41
2021/05/06 07:48:42;;;;;;;1.07;0.98;;;;;;;14.84;63.24;99982.39;1763158;81;21008;-41
2021/05/06 07:51:12;;;;;;;0.10;0.10;;;;;;;15.16;60.89;99977.03;1763796;80;21215;-41
2021/05/06 07:53:47;;;;;;;0.10;0.10;;;;;;;15.45;59.89;99989.35;1763626;81;21148;-41
2021/05/06 07:56:14;;;;;;;0.77;0.70;;;;;;;15.65;58.71;99983.77;1763120;81;21108;-40
2021/05/06 07:58:42;;;;;;;0.00;0.00;;;;;;;15.87;59.34;99985.56;1762184;81;21204;-41
2021/05/06 08:01:09;;;;;;;0.00;0.00;;;;;;;16.14;58.40;99996.78;1762469;80;21170;-42
2021/05/06 08:03:38;;;;;;;0.20;0.20;;;;;;;16.36;56.78;99995.75;1762248;81;21233;-40
2021/05/06 08:06:05;;;;;;;0.00;0.00;;;;;;;16.54;56.75;99997.88;1762184;81;21163;-41
2021/05/06 08:08:33;;;;;;;0.20;0.20;;;;;;;16.71;55.32;100006.66;1762257;81;21248;-42
2021/05/06 08:11:02;;;;;;;0.03;0.03;;;;;;;16.84;55.74;100007.59;1762291;81;21143;-41
2021/05/06 08:13:30;;;;;;;0.00;0.00;;;;;;;16.91;54.25;99998.23;1762237;81;21135;-41
2021/05/06 08:15:57;;;;;;;0.13;0.13;;;;;;;16.92;54.77;100004.00;1762263;80;21184;-41
2021/05/06 08:18:25;;;;;;;0.20;0.20;;;;;;;16.95;54.81;100011.03;1762236;81;21114;-42
2021/05/06 08:20:53;;;;;;;0.08;0.08;;;;;;;17.02;54.30;100011.90;1787102;80;21546;-40
2021/05/06 08:23:21;;;;;;;0.30;0.30;;;;;;;17.10;53.97;100008.27;1787080;80;21124;-42
2021/05/06 08:25:49;;;;;;;0.80;0.30;;;;;;;17.12;53.04;100003.23;1787192;80;21239;-40
2021/05/06 08:28:18;;;;;;;0.20;0.20;;;;;;;17.08;53.84;100016.07;1787142;80;21117;-42
2021/05/06 08:30:46;;;;;;;0.10;0.10;;;;;;;17.06;53.70;100023.06;1787471;80;21159;-40
2021/05/06 08:33:14;;;;;;;0.28;0.28;;;;;;;17.08;52.97;100022.97;1786289;80;21116;-43
2021/05/06 08:35:41;;;;;;;0.10;0.10;;;;;;;17.04;53.07;100026.18;1767687;80;21127;-41
2021/05/06 08:38:09;;;;;;;0.28;0.20;;;;;;;17.01;53.41;100037.06;1816403;79;21155;-42
2021/05/06 08:40:37;;;;;;;0.50;0.50;;;;;;;16.97;53.11;100038.31;1745600;80;21563;-41
2021/05/06 08:43:08;;;;;;;1.75;0.47;;;;;;;16.94;53.47;100038.41;1771368;81;21150;-41
2021/05/06 08:45:42;;;;;;;0.20;0.20;;;;;;;16.95;54.03;100045.53;1771316;80;21135;-41
2021/05/06 08:48:06;;;;;;;0.10;0.10;;;;;;;16.93;53.65;100038.73;1744440;82;21151;-40
2021/05/06 08:50:33;;;;;;;0.25;0.25;;;;;;;16.83;53.67;100036.34;1723493;81;21558;-41
2021/05/06 08:53:01;;;;;;;0.30;0.30;;;;;;;16.70;54.04;100036.20;1764845;79;21139;-41
2021/05/06 08:55:29;;;;;;;0.10;0.10;;;;;;;16.63;54.02;100041.41;1727642;81;21112;-41
2021/05/06 08:57:56;;;;;;;0.08;0.08;;;;;;;16.65;54.62;100038.34;1761046;81;21164;-41
2021/05/06 09:00:24;;;;;;;0.00;0.00;;;;;;;16.69;54.68;100044.80;1772051;80;21131;-41
2021/05/06 09:02:53;;;;;;;0.10;0.10;;;;;;;16.77;55.30;100047.53;1771858;80;21567;-41
2021/05/06 09:05:22;;;;;;;0.30;0.20;;;;;;;16.86;54.67;100046.70;1772003;80;21439;-40
2021/05/06 09:07:50;;;;;;;0.10;0.10;;;;;;;16.85;55.06;100050.63;1771374;81;21156;-42
2021/05/06 09:10:39;;;;;;;0.28;0.20;;;;;;;16.95;55.85;100057.14;1771581;81;21441;-40
2021/05/06 09:13:30;;;;;;;0.40;0.40;;;;;;;17.10;55.49;100063.48;1771519;81;21166;-41
2021/05/06 09:15:59;;;;;;;0.10;0.10;;;;;;;17.25;54.92;100054.40;1771167;81;21182;-41
2021/05/06 09:18:46;;;;;;;0.80;0.33;;;;;;;17.24;53.98;100050.03;1771277;81;21106;-43
2021/05/06 09:21:29;;;;;;;0.10;0.10;;;;;;;17.26;54.27;100057.37;1771197;81;21129;-41
2021/05/06 09:24:26;;;;;;;0.20;0.20;;;;;;;17.26;53.90;100057.37;1771207;81;21119;-41
2021/05/06 09:27:01;;;;;;;0.25;0.25;;;;;;;17.29;53.89;100060.87;1771407;81;21177;-41
2021/05/06 09:29:45;;;;;;;0.05;0.05;;;;;;;17.26;53.73;100056.00;1771415;81;21107;-41
2021/05/06 09:32:20;;;;;;;0.23;0.20;;;;;;;17.20;53.90;100060.34;1771921;79;21098;-40
2021/05/06 09:34:54;;;;;;;0.10;0.10;;;;;;;17.13;54.39;100060.05;1771267;79;21562;-41
2021/05/06 09:37:31;;;;;;;0.20;0.20;;;;;;;17.11;54.49;100061.52;1772106;79;21593;-41
2021/05/06 09:40:03;;;;;;;0.10;0.10;;;;;;;17.05;54.26;100063.67;1787494;80;21162;-42
2021/05/06 09:42:40;;;;;;;0.20;0.20;;;;;;;16.93;54.38;100063.56;1767535;80;21158;-41
2021/05/06 09:45:08;;;;;;;0.40;0.40;;;;;;;16.79;54.63;100067.11;1772260;80;21131;-41
2021/05/06 09:47:37;;;;;;;0.55;0.42;;;;;;;16.61;54.98;100067.13;1772176;80;21142;-40
2021/05/06 09:50:06;;;;;;;1.90;0.98;;;;;;;16.45;55.43;100062.73;1772036;80;21147;-40
2021/05/06 09:52:55;;;;;;;0.82;0.50;;;;;;;16.31;56.51;100066.23;1770964;81;21217;-40
2021/05/06 09:55:25;;;;;;;0.57;0.35;;;;;;;16.17;57.13;100071.95;1771410;80;21131;-42
2021/05/06 09:57:52;;;;;;;0.93;0.15;;;;;;;16.04;57.69;100075.09;1763688;80;20969;-40
2021/05/06 10:00:21;;;;;;;0.42;0.42;;;;;;;16.00;58.15;100076.06;1762815;80;21167;-41
2021/05/06 10:02:48;;;;;;;1.05;0.50;;;;;;;15.95;58.34;100078.98;1762502;81;21574;-40
2021/05/06 10:05:18;;;;;;;0.30;0.30;;;;;;;15.93;58.38;100078.53;1759357;81;21142;-41
2021/05/06 10:07:53;;;;;;;0.20;0.20;;;;;;;15.90;58.73;100082.17;1762276;81;21158;-40
2021/05/06 10:10:23;;;;;;;1.02;0.33;;;;;;;15.90;59.60;100083.55;1774781;80;20987;-40
2021/05/06 10:12:51;;;;;;;0.50;0.50;;;;;;;15.95;60.47;100090.02;1793765;80;21447;-41
2021/05/06 10:15:19;;;;;;;0.47;0.47;;;;;;;15.93;61.21;100092.30;1784324;80;21119;-41
2021/05/06 10:17:48;;;;;;;0.17;0.17;;;;;;;15.89;61.09;100082.48;1768519;79;21159;-40
2021/05/06 10:20:15;;;;;;;0.30;0.30;;;;;;;15.91;61.29;100094.00;1753298;81;21124;-40
2021/05/06 10:22:43;;;;;;;0.25;0.25;;;;;;;15.98;61.40;100085.25;1784434;80;21111;-41
2021/05/06 10:25:11;;;;;;;0.10;0.10;;;;;;;16.02;61.42;100095.30;1784531;80;21139;-42
2021/05/06 10:27:40;;;;;;;0.30;0.30;;;;;;;16.04;62.01;100096.34;1784276;80;21150;-40
2021/05/06 10:30:13;;;;;;;0.57;0.30;;;;;;;16.01;62.02;100092.29;1784319;80;21146;-41
2021/05/06 10:32:45;;;;;;;2.05;0.20;;;;;;;15.93;62.17;100100.00;1784420;80;21019;-41
2021/05/06 10:35:17;;;;;;;0.10;0.10;;;;;;;15.82;63.02;100116.02;1784875;78;21127;-42
2021/05/06 10:37:46;;;;;;;;;;;;;;;15.74;63.15;100109.94;1770384;79;21115;-42
2021/05/06 10:40:26;;;;;;;0.33;0.33;;;;;;;15.65;63.13;100116.80;1816681;78;20557;-41
2021/05/06 10:42:55;;;;;;;0.00;0.00;;;;;;;15.59;63.28;100113.13;1816618;79;21186;-40
2021/05/06 10:45:29;;;;;;;0.05;0.05;;;;;;;15.54;63.60;100112.72;1816513;78;21115;-41
2021/05/06 10:47:58;;;;;;;0.10;0.10;;;;;;;15.48;63.80;100118.95;1784594;79;21115;-41
2021/05/06 10:50:41;;;;;;;0.10;0.10;;;;;;;15.47;64.28;100120.62;1812121;79;21104;-40
2021/05/06 10:53:09;;;;;;;0.57;0.57;;;;;;;15.47;64.59;100131.64;1786813;80;21120;-39
2021/05/06 10:55:53;;;;;;;0.10;0.10;;;;;;;15.40;64.71;100133.48;1786416;79;21582;-41
2021/05/06 10:58:32;;;;;;;0.00;0.00;;;;;;;15.36;65.32;100143.53;1785490;79;21159;-42
2021/05/06 11:01:10;;;;;;;0.30;0.30;;;;;;;15.29;65.66;100139.62;1787011;79;21113;-40
2021/05/06 11:03:41;;;;;;;1.00;0.33;;;;;;;15.16;66.00;100134.47;1785008;79;21194;-40
2021/05/06 11:06:29;;;;;;;0.20;0.20;;;;;;;15.03;66.48;100139.77;1784887;80;21142;-40
2021/05/06 11:08:58;;;;;;;1.12;0.60;;;;;;;14.92;67.00;100138.97;1784965;79;21488;-40
2021/05/06 11:11:25;;;;;;;0.82;0.82;;;;;;;14.78;67.78;100143.97;1790934;79;21146;-41
2021/05/06 11:14:06;;;;;;;0.30;0.30;;;;;;;14.70;67.99;100138.44;1759961;80;21127;-41
2021/05/06 11:16:35;;;;;;;0.85;0.80;;;;;;;14.59;68.23;100149.70;1768453;80;21124;-41
2021/05/06 11:19:03;;;;;;;1.15;1.12;;;;;;;14.52;68.66;100156.17;1775099;80;21115;-41
2021/05/06 11:21:40;;;;;;;1.22;0.65;;;;;;;14.46;69.04;100161.53;1753092;81;21137;-41
2021/05/06 11:24:25;;;;;;;0.15;0.15;;;;;;;14.41;69.16;100158.91;1759164;80;21138;-41
2021/05/06 11:27:12;;;;;;;1.47;0.23;;;;;;;14.37;68.92;100164.80;1785570;79;21198;-41
2021/05/06 11:29:42;;;;;;;1.40;0.53;;;;;;;14.40;68.98;100164.17;1787249;79;21628;-41
2021/05/06 11:32:34;;;;;;;0.30;0.30;;;;;;;14.52;69.06;100161.67;1767833;81;21159;-42
2021/05/06 11:35:03;;;;;;;0.47;0.47;;;;;;;14.70;68.26;100163.19;1750196;81;21405;-41
2021/05/06 11:37:32;;;;;;;2.58;1.10;;;;;;;14.86;67.68;100156.72;1778716;79;21134;-40
2021/05/06 11:40:06;;;;;;;0.90;0.78;;;;;;;15.00;67.05;100158.25;1796563;79;21178;-41
2021/05/06 11:42:39;;;;;;;0.33;0.30;;;;;;;15.17;66.42;100163.60;1780407;79;21521;-41
2021/05/06 11:45:13;;;;;;;0.62;0.33;;;;;;;15.42;65.76;100168.96;1755417;79;21146;-40
2021/05/06 11:47:41;;;;;;;0.75;0.75;;;;;;;15.62;65.63;100168.94;1767625;79;21149;-40
2021/05/06 11:50:20;;;;;;;1.00;0.85;;;;;;;15.80;64.69;100164.30;1767751;81;21000;-41
2021/05/06 11:52:48;;;;;;;0.28;0.28;;;;;;;15.97;64.20;100158.02;1767904;81;21146;-40
2021/05/06 11:55:42;;;;;;;1.20;0.60;;;;;;;16.15;63.58;100165.72;1767670;80;21126;-41
2021/05/06 11:58:13;;;;;;;0.60;0.47;;;;;;;16.29;62.58;100168.56;1732706;79;21574;-40
2021/05/06 12:00:41;;;;;;;0.42;0.40;;;;;;;16.45;62.02;100174.98;1766862;79;21154;-41
2021/05/06 12:03:11;;;;;;;0.50;0.50;;;;;;;16.50;60.95;100163.79;1728875;79;21208;-42
2021/05/06 12:05:59;;;;;;;0.25;0.25;;;;;;;16.48;60.09;100171.57;1784143;80;21468;-43
2021/05/06 12:08:33;;;;;;;1.62;0.82;;;;;;;16.34;60.30;100169.80;1789614;79;21155;-41
2021/05/06 12:11:04;;;;;;;0.75;0.55;;;;;;;16.25;60.93;100173.13;1779086;79;21163;-41
2021/05/06 12:13:37;;;;;;;0.55;0.53;;;;;;;16.24;60.29;100174.81;1785763;79;21273;-41
2021/05/06 12:16:23;;;;;;;1.17;0.65;;;;;;;16.23;60.56;100167.12;1783702;80;21154;-42
2021/05/06 12:19:05;;;;;;;0.55;0.53;;;;;;;16.24;61.03;100164.59;1776495;80;21143;-40
2021/05/06 12:21:53;;;;;;;0.10;0.10;;;;;;;16.26;61.20;100161.52;1769170;80;21135;-41
2021/05/06 12:24:36;;;;;;;1.00;0.95;;;;;;;16.22;61.03;100164.12;1785558;80;21454;-40
2021/05/06 12:27:19;;;;;;;0.45;0.45;;;;;;;16.15;61.19;100162.42;1753091;81;21581;-41
2021/05/06 12:29:59;;;;;;;1.77;1.07;;;;;;;16.06;60.92;100158.84;1752943;81;21163;-42
2021/05/06 12:32:33;;;;;;;0.40;0.30;;;;;;;16.00;61.22;100158.20;1784523;79;21151;-41
2021/05/06 12:35:01;;;;;;;0.70;0.70;;;;;;;15.99;61.49;100158.51;1783995;80;21095;-40
2021/05/06 12:37:31;;;;;;;0.60;0.60;;;;;;;15.90;61.58;100164.83;1796526;79;21481;-40
2021/05/06 12:39:59;;;;;;;2.00;1.55;;;;;;;15.77;61.03;100164.95;1783991;80;21368;-41
2021/05/06 12:42:34;;;;;;;0.53;0.53;;;;;;;15.67;61.29;100166.03;1783885;80;21590;-41
2021/05/06 12:45:08;;;;;;;0.10;0.10;;;;;;;15.58;61.35;100171.53;1784027;80;21110;-40
2021/05/06 12:47:51;;;;;;;0.35;0.35;;;;;;;15.45;61.91;100170.53;1779844;80;21186;-41
2021/05/06 12:50:24;;;;;;;0.50;0.50;;;;;;;15.36;62.29;100177.94;1782985;80;21127;-40
2021/05/06 12:52:57;;;;;;;0.62;0.60;;;;;;;15.28;62.31;100177.31;1753089;81;21133;-42
2021/05/06 12:55:28;;;;;;;0.30;0.30;;;;;;;15.20;62.25;100173.97;1732193;81;21135;-41
2021/05/06 12:58:16;;;;;;;0.60;0.60;;;;;;;15.17;62.31;100175.98;1761710;81;21165;-42
2021/05/06 13:00:58;;;;;;;1.70;1.07;;;;;;;15.13;62.65;100177.73;1730990;82;21475;-41
2021/05/06 13:03:35;;;;;;;1.45;1.00;;;;;;;15.10;62.98;100175.63;1761117;81;21585;-40
2021/05/06 13:06:12;;;;;;;0.57;0.40;;;;;;;15.09;63.13;100168.52;1731104;82;21444;-41
2021/05/06 13:08:44;;;;;;;0.20;0.20;;;;;;;15.07;63.13;100173.52;1746732;81;21197;-41
2021/05/06 13:11:20;;;;;;;0.40;0.40;;;;;;;15.04;63.45;100171.64;1768521;81;21194;-40
2021/05/06 13:13:51;;;;;;;0.30;0.30;;;;;;;15.06;63.54;100180.97;1767920;81;21130;-41
2021/05/06 13:16:38;;;;;;;0.10;0.10;;;;;;;15.09;63.80;100178.95;1738008;82;21131;-41
2021/05/06 13:19:08;;;;;;;0.50;0.23;;;;;;;15.10;63.89;100175.63;1735843;82;21167;-42
2021/05/06 13:21:37;;;;;;;0.20;0.20;;;;;;;15.09;64.06;100178.95;1737587;82;21166;-41
2021/05/06 13:24:08;;;;;;;1.07;0.85;;;;;;;15.09;64.26;100178.95;1747866;81;21119;-41
2021/05/06 13:26:38;;;;;;;0.47;0.47;;;;;;;15.13;64.47;100170.86;1761053;81;21476;-40
2021/05/06 13:31:54;;;;;;;1.32;0.72;;;;;;;15.23;64.52;100176.08;1887489;76;22815;-40
2021/05/06 13:34:27;;;;;;;0.35;0.30;;;;;;;15.19;64.16;100177.30;1800151;78;21131;-41
2021/05/06 13:37:03;;;;;;;0.60;0.60;;;;;;;15.20;64.23;100172.59;1783331;80;21170;-41
2021/05/06 13:39:33;;;;;;;1.42;1.32;;;;;;;15.20;64.30;100178.10;1783129;79;21768;-41
2021/05/06 13:42:01;;;;;;;1.75;0.33;;;;;;;15.24;64.08;100179.10;1782604;80;21090;-40
2021/05/06 13:44:30;;;;;;;1.30;0.55;;;;;;;15.29;64.07;100186.41;1783151;79;21102;-41
2021/05/06 13:47:02;;;;;;;0.33;0.33;;;;;;;15.26;64.13;100187.86;1783355;80;21153;-40
2021/05/06 13:49:32;;;;;;;1.45;0.62;;;;;;;15.23;63.20;100187.93;1750265;80;21130;-41
2021/05/06 13:52:01;;;;;;;0.60;0.60;;;;;;;15.18;62.00;100187.23;1752369;81;21512;-41
2021/05/06 13:54:28;;;;;;;0.10;0.10;;;;;;;15.14;61.55;100184.89;1752272;80;21126;-42
2021/05/06 13:56:57;;;;;;;0.10;0.10;;;;;;;15.18;61.15;100183.11;1752461;81;21465;-40
2021/05/06 13:59:25;;;;;;;0.00;0.00;;;;;;;15.27;60.08;100184.77;1764779;80;21121;-41
2021/05/06 14:01:54;;;;;;;0.15;0.15;;;;;;;15.39;59.28;100184.17;1770460;80;21164;-40
2021/05/06 14:04:22;;;;;;;0.03;0.03;;;;;;;15.48;58.22;100186.98;1764280;80;21149;-41
2021/05/06 14:06:50;;;;;;;0.68;0.40;;;;;;;15.54;57.33;100189.02;1764271;81;21180;-41
2021/05/06 14:09:19;;;;;;;0.17;0.17;;;;;;;15.59;57.53;100190.23;1764231;81;21143;-41
2021/05/06 14:11:49;;;;;;;0.13;0.13;;;;;;;15.69;57.24;100188.56;1782334;80;21165;-41
2021/05/06 14:14:17;;;;;;;0.00;0.00;;;;;;;15.81;57.24;100183.86;1782550;79;21180;-40
2021/05/06 14:16:45;;;;;;;0.20;0.20;;;;;;;16.02;57.31;100182.66;1783099;80;21178;-40
2021/05/06 14:19:13;;;;;;;0.45;0.45;;;;;;;16.28;56.39;100179.94;1783186;79;21098;-40
2021/05/06 14:21:46;;;;;;;0.13;0.13;;;;;;;16.55;55.37;100180.16;1783203;80;21130;-40
2021/05/06 14:24:14;;;;;;;0.00;0.00;;;;;;;16.83;54.54;100187.53;1783327;79;21111;-42
2021/05/06 14:26:47;;;;;;;0.45;0.30;;;;;;;17.12;53.57;100179.91;1783483;80;21122;-41
2021/05/06 14:29:15;;;;;;;1.15;0.47;;;;;;;17.33;52.99;100186.08;1783576;79;21157;-40
2021/05/06 14:31:43;;;;;;;0.20;0.20;;;;;;;17.59;51.54;100178.48;1782791;80;21422;-41
2021/05/06 14:34:11;;;;;;;0.10;0.10;;;;;;;17.88;50.08;100183.81;1783721;79;21095;-41
2021/05/06 14:36:38;;;;;;;0.28;0.28;;;;;;;18.10;49.43;100190.15;1783614;80;21125;-41
2021/05/06 14:39:08;;;;;;;0.30;0.30;;;;;;;18.22;47.13;100183.30;1783451;79;21492;-41
2021/05/06 14:41:39;;;;;;;0.10;0.10;;;;;;;18.26;46.14;100181.50;1783416;80;21186;-42
2021/05/06 14:44:06;;;;;;;0.35;0.10;;;;;;;18.20;45.06;100174.53;1782994;79;21138;-41
2021/05/06 14:46:35;;;;;;;0.15;0.15;;;;;;;18.20;45.06;100174.53;1755174;81;21123;-41
2021/05/06 14:49:03;;;;;;;0.00;0.00;;;;;;;17.99;45.85;100170.39;1787412;78;21133;-41
2021/05/06 14:51:31;;;;;;;0.20;0.20;;;;;;;17.83;46.54;100171.57;1787719;80;21158;-43
2021/05/06 14:53:59;;;;;;;0.37;0.37;;;;;;;17.73;46.63;100168.59;1787636;78;21149;-42
2021/05/06 14:56:28;;;;;;;0.15;0.13;;;;;;;17.66;46.79;100170.27;1787758;80;21438;-40
2021/05/06 14:58:56;;;;;;;0.00;0.00;;;;;;;17.51;46.80;100171.06;1787706;78;21118;-40
2021/05/06 15:01:23;;;;;;;0.10;0.10;;;;;;;17.44;46.73;100171.34;1787742;80;21585;-42
2021/05/06 15:03:51;;;;;;;0.00;0.00;;;;;;;17.34;46.40;100176.67;1726136;81;21197;-40
2021/05/06 15:06:19;;;;;;;0.20;0.20;;;;;;;17.27;46.93;100166.70;1788577;79;21162;-41
2021/05/06 15:08:47;;;;;;;0.00;0.00;;;;;;;17.22;46.49;100173.80;1787623;78;21133;-42
2021/05/06 15:11:15;;;;;;;0.00;0.00;;;;;;;17.16;45.97;100179.50;1764862;80;21150;-40
2021/05/06 15:13:43;;;;;;;0.10;0.10;;;;;;;17.08;45.83;100173.42;1727053;81;21592;-41
2021/05/06 15:16:11;;;;;;;0.00;0.00;;;;;;;16.90;45.89;100181.52;1756897;81;21674;-41
2021/05/06 15:18:40;;;;;;;0.00;0.00;;;;;;;16.71;46.55;100176.32;1756798;80;21146;-41
2021/05/06 15:21:08;;;;;;;0.00;0.00;;;;;;;16.56;46.51;100177.06;1756828;81;21147;-41
2021/05/06 15:23:36;;;;;;;0.55;0.30;;;;;;;16.52;46.15;100178.07;1776332;78;21236;-42
2021/05/06 15:26:03;;;;;;;0.15;0.15;;;;;;;16.45;46.35;100183.27;1788183;80;21146;-40
2021/05/06 15:28:31;;;;;;;0.45;0.30;;;;;;;16.36;46.63;100180.49;1787960;78;22030;-40
2021/05/06 15:31:01;;;;;;;0.50;0.20;;;;;;;16.27;46.26;100182.42;1787426;79;21134;-41
2021/05/06 15:33:28;;;;;;;0.55;0.55;;;;;;;16.21;45.87;100184.55;1787653;78;21127;-41
2021/05/06 15:35:56;;;;;;;0.40;0.30;;;;;;;16.13;46.18;100188.12;1787790;80;21158;-41